createdAt,value
2018-06-19T00:01:25.438Z,14.80
2018-06-19T00:03:52.707Z,14.80
2018-06-19T00:08:47.279Z,14.70
2018-06-19T00:11:14.588Z,13.90
2018-06-19T00:13:41.852Z,14.60
2018-06-19T00:16:09.119Z,14.60
2018-06-19T00:21:15.463Z,14.50
2018-06-19T00:23:42.776Z,14.50
2018-06-19T00:26:10.027Z,13.20
2018-06-19T00:28:39.823Z,14.30
2018-06-19T00:31:07.105Z,14.40
2018-06-19T00:33:34.395Z,14.30
2018-06-19T00:36:01.952Z,14.30
2018-06-19T00:38:29.234Z,14.30
2018-06-19T00:40:56.503Z,14.30
2018-06-19T00:43:23.760Z,14.20
2018-06-19T00:45:51.040Z,15.20
2018-06-19T00:48:18.307Z,14.20
2018-06-19T00:50:45.566Z,14.20
2018-06-19T00:53:12.867Z,13.70
2018-06-19T00:58:07.411Z,14.00
2018-06-19T01:00:34.664Z,14.00
2018-06-19T01:03:01.972Z,13.90
2018-06-19T01:05:29.231Z,13.90
2018-06-19T01:07:56.504Z,13.80
2018-06-19T01:10:23.774Z,13.80
2018-06-19T01:12:51.097Z,13.60
2018-06-19T01:15:18.370Z,13.80
2018-06-19T01:17:45.603Z,13.80
2018-06-19T01:20:12.882Z,13.70
2018-06-19T01:22:40.156Z,12.60
2018-06-19T01:27:34.691Z,13.60
2018-06-19T01:30:01.948Z,14.50
2018-06-19T01:37:24.106Z,13.50
2018-06-19T01:39:51.384Z,13.50
2018-06-19T01:42:18.646Z,13.50
2018-06-19T01:44:45.923Z,13.40
2018-06-19T01:47:13.188Z,13.40
2018-06-19T01:49:40.463Z,13.40
2018-06-19T01:52:07.741Z,13.40
2018-06-19T01:54:35.032Z,13.30
2018-06-19T01:57:02.324Z,13.40
2018-06-19T01:59:29.688Z,13.40
2018-06-19T02:01:56.986Z,13.40
2018-06-19T02:04:24.259Z,13.30
2018-06-19T02:06:51.539Z,13.30
2018-06-19T02:11:52.947Z,13.20
2018-06-19T02:14:20.203Z,13.20
2018-06-19T02:16:47.492Z,13.20
2018-06-19T02:19:14.755Z,13.30
2018-06-19T02:21:42.028Z,13.30
2018-06-19T02:24:09.301Z,13.30
2018-06-19T02:26:36.567Z,12.40
2018-06-19T02:29:03.900Z,13.40
2018-06-19T02:31:31.155Z,13.50
2018-06-19T02:33:58.398Z,12.60
2018-06-19T02:36:25.654Z,13.70
2018-06-19T02:38:52.914Z,13.60
2018-06-19T02:41:20.184Z,12.30
2018-06-19T02:43:47.482Z,12.50
2018-06-19T02:46:14.762Z,13.60
2018-06-19T02:48:42.031Z,13.70
2018-06-19T02:51:09.292Z,13.70
2018-06-19T02:53:36.562Z,13.70
2018-06-19T02:56:03.872Z,13.80
2018-06-19T02:58:31.171Z,14.30
2018-06-19T03:03:26.157Z,13.80
2018-06-19T03:05:53.420Z,14.20
2018-06-19T03:08:20.698Z,13.90
2018-06-19T03:10:47.967Z,13.90
2018-06-19T03:13:15.255Z,15.10
2018-06-19T03:15:42.487Z,13.90
2018-06-19T03:18:09.770Z,13.90
2018-06-19T03:20:37.042Z,13.50
2018-06-19T03:23:04.523Z,13.50
2018-06-19T03:25:31.762Z,14.10
2018-06-19T03:27:59.031Z,14.10
2018-06-19T03:30:26.292Z,14.10
2018-06-19T03:32:53.544Z,14.80
2018-06-19T03:35:20.803Z,14.10
2018-06-19T03:37:48.071Z,14.10
2018-06-19T03:40:15.316Z,14.10
2018-06-19T03:42:43.049Z,14.10
2018-06-19T03:45:10.301Z,14.10
2018-06-19T03:47:37.592Z,13.10
2018-06-19T03:50:05.195Z,14.00
2018-06-19T03:52:32.454Z,14.10
2018-06-19T03:54:59.695Z,14.30
2018-06-19T03:57:26.964Z,14.40
2018-06-19T03:59:54.240Z,14.30
2018-06-19T04:02:21.478Z,14.40
2018-06-19T04:04:48.758Z,13.40
2018-06-19T04:07:15.999Z,14.40
2018-06-19T04:09:43.258Z,14.80
2018-06-19T04:12:10.514Z,13.70
2018-06-19T04:14:37.779Z,15.40
2018-06-19T04:17:05.206Z,14.60
2018-06-19T04:19:32.443Z,14.70
2018-06-19T04:21:59.706Z,13.80
2018-06-19T04:24:27.812Z,14.80
2018-06-19T04:29:22.893Z,14.90
2018-06-19T04:31:50.164Z,15.00
2018-06-19T04:34:17.419Z,15.00
2018-06-19T04:36:45.315Z,14.60
2018-06-19T04:39:12.763Z,15.20
2018-06-19T04:41:40.257Z,15.20
2018-06-19T04:44:07.882Z,15.30
2018-06-19T04:46:35.303Z,15.50
2018-06-19T04:49:02.545Z,15.60
2018-06-19T04:51:29.787Z,14.90
2018-06-19T04:56:24.287Z,15.90
2018-06-19T04:58:51.558Z,15.90
2018-06-19T05:01:18.899Z,16.50
2018-06-19T05:03:46.156Z,16.00
2018-06-19T05:06:13.401Z,16.10
2018-06-19T05:08:40.919Z,15.90
2018-06-19T05:11:08.170Z,16.10
2018-06-19T05:13:35.408Z,16.20
2018-06-19T05:16:02.683Z,16.20
2018-06-19T05:18:29.923Z,16.40
2018-06-19T05:20:57.210Z,16.40
2018-06-19T05:23:24.475Z,16.50
2018-06-19T05:25:51.735Z,16.60
2018-06-19T05:28:18.975Z,16.70
2018-06-19T05:30:46.247Z,16.80
2018-06-19T05:33:13.502Z,16.80
2018-06-19T05:38:08.037Z,17.00
2018-06-19T05:40:35.280Z,17.00
2018-06-19T05:45:29.874Z,17.40
2018-06-19T05:47:57.166Z,17.50
2018-06-19T05:50:24.419Z,17.60
2018-06-19T05:52:51.770Z,17.80
2018-06-19T05:55:19.132Z,17.90
2018-06-19T05:57:46.392Z,18.10
2018-06-19T06:00:13.662Z,18.10
2018-06-19T06:02:40.922Z,18.30
2018-06-19T06:05:08.175Z,18.40
2018-06-19T06:07:35.435Z,18.40
2018-06-19T06:10:02.708Z,17.80
2018-06-19T06:12:29.972Z,18.30
2018-06-19T06:14:57.612Z,18.40
2018-06-19T06:19:52.156Z,18.50
2018-06-19T06:22:19.447Z,18.60
2018-06-19T06:24:46.687Z,18.70
2018-06-19T06:27:14.002Z,18.80
2018-06-19T06:29:41.256Z,19.00
2018-06-19T06:32:08.549Z,19.10
2018-06-19T06:34:35.800Z,19.30
2018-06-19T06:37:03.115Z,18.50
2018-06-19T06:39:30.388Z,19.20
2018-06-19T06:41:57.627Z,19.70
2018-06-19T06:44:24.896Z,18.70
2018-06-19T06:46:52.136Z,20.20
2018-06-19T06:49:19.419Z,20.30
2018-06-19T06:51:46.679Z,20.50
2018-06-19T06:54:13.979Z,20.70
2018-06-19T06:56:41.223Z,21.00
2018-06-19T06:59:08.470Z,21.10
2018-06-19T07:01:35.691Z,21.30
2018-06-19T07:04:03.247Z,21.50
2018-06-19T07:06:30.903Z,22.10
2018-06-19T07:08:58.181Z,21.50
2018-06-19T07:11:25.414Z,21.60
2018-06-19T07:13:52.675Z,21.80
2018-06-19T07:16:19.952Z,21.70
2018-06-19T07:18:47.510Z,21.80
2018-06-19T07:21:14.768Z,21.60
2018-06-19T07:23:42.000Z,21.30
2018-06-19T07:26:09.329Z,21.80
2018-06-19T07:28:36.543Z,22.20
2018-06-19T07:31:03.944Z,22.20
2018-06-19T07:33:31.211Z,22.10
2018-06-19T07:35:58.474Z,22.10
2018-06-19T07:38:25.801Z,21.90
2018-06-19T07:40:53.059Z,21.90
2018-06-19T07:43:20.363Z,22.00
2018-06-19T07:45:47.611Z,21.90
2018-06-19T07:48:14.864Z,21.70
2018-06-19T07:50:42.125Z,21.70
2018-06-19T07:53:09.395Z,20.60
2018-06-19T07:55:36.711Z,21.80
2018-06-19T07:58:03.993Z,21.80
2018-06-19T08:02:58.539Z,21.50
2018-06-19T08:05:25.799Z,21.40
2018-06-19T08:07:53.061Z,21.50
2018-06-19T08:10:20.293Z,21.90
2018-06-19T08:12:48.102Z,22.40
2018-06-19T08:20:10.291Z,22.30
2018-06-19T08:22:38.184Z,22.40
2018-06-19T08:25:05.447Z,22.80
2018-06-19T08:27:32.751Z,23.50
2018-06-19T08:29:59.958Z,23.60
2018-06-19T08:32:27.220Z,23.00
2018-06-19T08:34:54.477Z,22.70
2018-06-19T08:37:21.740Z,22.40
2018-06-19T08:39:48.964Z,22.10
2018-06-19T08:42:16.240Z,21.90
2018-06-19T08:44:43.481Z,22.00
2018-06-19T08:47:10.779Z,22.10
2018-06-19T08:49:38.087Z,22.20
2018-06-19T08:52:05.348Z,22.40
2018-06-19T08:54:32.612Z,23.00
2018-06-19T08:56:59.920Z,23.40
2018-06-19T08:59:27.218Z,22.60
2018-06-19T09:01:54.523Z,23.30
2018-06-19T09:04:21.869Z,23.50
2018-06-19T09:06:49.179Z,23.90
2018-06-19T09:09:16.437Z,22.90
2018-06-19T09:11:43.679Z,23.90
2018-06-19T09:14:10.927Z,24.30
2018-06-19T09:16:38.205Z,24.80
2018-06-19T09:19:05.485Z,25.40
2018-06-19T09:21:32.755Z,25.20
2018-06-19T09:26:27.335Z,23.80
2018-06-19T09:28:54.594Z,23.30
2018-06-19T09:31:21.949Z,23.30
2018-06-19T09:33:49.312Z,23.30
2018-06-19T09:36:16.555Z,23.30
2018-06-19T09:41:11.566Z,23.30
2018-06-19T09:43:38.854Z,22.20
2018-06-19T09:46:06.119Z,23.20
2018-06-19T09:48:33.374Z,23.10
2018-06-19T09:51:00.666Z,23.10
2018-06-19T09:53:27.927Z,23.00
2018-06-19T09:55:55.239Z,23.10
2018-06-19T09:58:22.620Z,23.30
2018-06-19T10:00:49.980Z,23.50
2018-06-19T10:03:17.378Z,23.90
2018-06-19T10:05:44.757Z,24.60
2018-06-19T10:08:11.980Z,24.60
2018-06-19T10:10:39.311Z,25.70
2018-06-19T10:13:07.052Z,25.80
2018-06-19T10:15:34.380Z,25.80
2018-06-19T10:18:01.691Z,24.30
2018-06-19T10:22:56.288Z,25.30
2018-06-19T10:25:23.659Z,24.70
2018-06-19T10:27:50.963Z,24.70
2018-06-19T10:32:45.596Z,25.00
2018-06-19T10:35:13.007Z,25.20
2018-06-19T10:37:40.267Z,25.70
2018-06-19T10:40:07.715Z,26.20
2018-06-19T10:42:35.031Z,26.50
2018-06-19T10:45:02.572Z,26.70
2018-06-19T10:47:29.908Z,25.80
2018-06-19T10:49:57.166Z,26.10
2018-06-19T10:54:51.975Z,25.70
2018-06-19T10:57:19.260Z,24.30
2018-06-19T10:59:46.768Z,24.70
2018-06-19T11:02:14.090Z,27.10
2018-06-19T11:04:41.335Z,28.40
2018-06-19T11:07:08.722Z,29.60
2018-06-19T11:09:35.964Z,30.40
2018-06-19T11:12:03.235Z,30.90
2018-06-19T11:14:30.467Z,30.70
2018-06-19T11:16:57.740Z,29.40
2018-06-19T11:19:25.006Z,28.40
2018-06-19T11:21:52.472Z,27.80
2018-06-19T11:24:19.730Z,27.60
2018-06-19T11:26:47.032Z,27.70
2018-06-19T11:29:14.339Z,27.40
2018-06-19T11:34:08.852Z,26.30
2018-06-19T11:41:33.519Z,27.40
2018-06-19T11:44:00.817Z,28.10
2018-06-19T11:46:28.068Z,28.40
2018-06-19T11:48:55.387Z,28.50
2018-06-19T11:51:22.743Z,28.80
2018-06-19T11:53:49.962Z,29.00
2018-06-19T11:56:17.223Z,28.80
2018-06-19T11:58:44.834Z,28.40
2018-06-19T12:01:12.146Z,28.10
2018-06-19T12:03:39.351Z,27.60
2018-06-19T12:06:06.604Z,26.90
2018-06-19T12:08:33.866Z,26.80
2018-06-19T12:11:01.167Z,26.70
2018-06-19T12:13:28.454Z,26.70
2018-06-19T12:15:55.756Z,27.10
2018-06-19T12:18:23.216Z,27.50
2018-06-19T12:20:50.538Z,27.80
2018-06-19T12:23:17.826Z,27.60
2018-06-19T12:25:45.077Z,27.40
2018-06-19T12:28:12.359Z,27.10
2018-06-19T12:30:39.619Z,27.20
2018-06-19T12:33:06.881Z,27.60
2018-06-19T12:35:34.155Z,28.10
2018-06-19T12:38:01.416Z,28.50
2018-06-19T12:40:28.696Z,28.50
2018-06-19T12:42:56.227Z,28.10
2018-06-19T12:45:23.500Z,28.40
2018-06-19T12:47:50.766Z,28.10
2018-06-19T12:50:31.838Z,27.90
2018-06-19T12:53:11.483Z,28.50
2018-06-19T12:55:50.898Z,29.10
2018-06-19T12:58:18.356Z,29.20
2018-06-19T13:00:45.796Z,28.90
2018-06-19T13:03:25.012Z,28.80
2018-06-19T13:06:04.065Z,28.80
2018-06-19T13:08:31.399Z,28.50
2018-06-19T13:10:58.986Z,28.40
2018-06-19T13:13:37.777Z,28.30
2018-06-19T13:16:10.896Z,27.90
2018-06-19T13:19:52.070Z,27.60
2018-06-19T13:22:19.361Z,27.40
2018-06-19T13:24:46.685Z,27.80
2018-06-19T13:27:14.179Z,27.70
2018-06-19T13:29:59.011Z,26.20
2018-06-19T13:32:26.606Z,27.80
2018-06-19T13:34:53.880Z,27.90
2018-06-19T13:37:21.203Z,28.20
2018-06-19T13:42:39.644Z,28.40
2018-06-19T13:45:07.676Z,28.40
2018-06-19T13:47:34.977Z,28.40
2018-06-19T13:50:02.398Z,28.60
2018-06-19T13:52:29.682Z,28.60
2018-06-19T13:57:42.768Z,28.30
2018-06-19T14:00:13.799Z,28.60
2018-06-19T14:02:41.185Z,28.70
2018-06-19T14:05:09.052Z,28.70
2018-06-19T14:07:46.592Z,29.00
2018-06-19T14:10:27.334Z,29.20
2018-06-19T14:12:56.884Z,29.20
2018-06-19T14:15:24.316Z,29.10
2018-06-19T14:17:51.586Z,29.00
2018-06-19T14:20:18.873Z,28.70
2018-06-19T14:22:46.136Z,28.00
2018-06-19T14:25:13.402Z,28.10
2018-06-19T14:27:40.674Z,27.30
2018-06-19T14:30:08.000Z,27.40
2018-06-19T14:32:35.405Z,28.40
2018-06-19T14:35:15.797Z,28.30
2018-06-19T14:37:43.342Z,28.50
2018-06-19T14:40:10.804Z,28.60
2018-06-19T14:45:06.084Z,28.10
2018-06-19T14:47:33.356Z,28.20
2018-06-19T14:50:00.615Z,28.20
2018-06-19T14:52:28.114Z,28.30
2018-06-19T14:54:55.346Z,28.20
2018-06-19T14:57:22.590Z,28.10
2018-06-19T14:59:49.848Z,27.80
2018-06-19T15:04:44.347Z,27.90
2018-06-19T15:07:11.627Z,27.60
2018-06-19T15:09:38.908Z,27.20
2018-06-19T15:14:33.476Z,27.60
2018-06-19T15:17:01.132Z,26.20
2018-06-19T15:19:28.404Z,27.40
2018-06-19T15:21:55.904Z,27.10
2018-06-19T15:24:23.160Z,26.90
2018-06-19T15:26:50.430Z,27.00
2018-06-19T15:31:44.924Z,26.90
2018-06-19T15:34:12.167Z,26.80
2018-06-19T15:36:39.477Z,27.00
2018-06-19T15:39:08.655Z,27.10
2018-06-19T15:44:03.556Z,27.40
2018-06-19T15:46:30.783Z,27.50
2018-06-19T15:48:58.075Z,27.60
2018-06-19T15:51:25.366Z,27.40
2018-06-19T15:53:52.642Z,27.50
2018-06-19T15:56:19.938Z,27.30
2018-06-19T15:58:47.207Z,27.20
2018-06-19T16:01:14.509Z,27.00
2018-06-19T16:03:41.779Z,26.90
2018-06-19T16:06:09.048Z,27.00
2018-06-19T16:08:36.303Z,25.50
2018-06-19T16:11:03.607Z,26.50
2018-06-19T16:13:30.849Z,26.70
2018-06-19T16:15:58.140Z,26.80
2018-06-19T16:18:25.403Z,26.80
2018-06-19T16:20:52.699Z,26.70
2018-06-19T16:23:19.939Z,26.60
2018-06-19T16:25:47.179Z,26.50
2018-06-19T16:28:14.443Z,26.30
2018-06-19T16:30:41.762Z,26.40
2018-06-19T16:33:09.008Z,26.30
2018-06-19T16:38:03.706Z,26.30
2018-06-19T16:40:30.995Z,26.50
2018-06-19T16:42:58.259Z,26.60
2018-06-19T16:45:25.558Z,26.60
2018-06-19T16:50:20.020Z,26.50
2018-06-19T16:52:48.186Z,26.50
2018-06-19T16:55:15.451Z,26.30
2018-06-19T16:57:45.156Z,26.30
2018-06-19T17:00:12.508Z,25.30
2018-06-19T17:02:39.737Z,25.80
2018-06-19T17:05:06.999Z,26.00
2018-06-19T17:07:34.231Z,25.80
2018-06-19T17:10:01.493Z,25.80
2018-06-19T17:12:28.756Z,25.70
2018-06-19T17:14:56.008Z,25.80
2018-06-19T17:17:23.314Z,25.70
2018-06-19T17:19:50.591Z,25.60
2018-06-19T17:22:17.864Z,25.50
2018-06-19T17:24:45.147Z,25.50
2018-06-19T17:27:12.412Z,25.50
2018-06-19T17:29:39.664Z,25.40
2018-06-19T17:32:06.919Z,25.30
2018-06-19T17:34:34.388Z,25.30
2018-06-19T17:39:29.022Z,25.20
2018-06-19T17:41:56.276Z,25.20
2018-06-19T17:44:23.531Z,25.10
2018-06-19T17:46:50.828Z,24.00
2018-06-19T17:49:18.087Z,25.10
2018-06-19T17:51:45.475Z,25.00
2018-06-19T17:54:12.744Z,23.40
2018-06-19T17:56:40.006Z,24.90
2018-06-19T17:59:07.276Z,24.50
2018-06-19T18:01:34.543Z,23.90
2018-06-19T18:06:29.099Z,24.70
2018-06-19T18:08:56.359Z,24.70
2018-06-19T18:11:24.493Z,24.60
2018-06-19T18:13:51.808Z,24.60
2018-06-19T18:16:19.072Z,24.50
2018-06-19T18:18:46.375Z,24.40
2018-06-19T18:21:13.647Z,24.30
2018-06-19T18:23:40.980Z,24.40
2018-06-19T18:26:08.237Z,24.30
2018-06-19T18:28:35.600Z,24.20
2018-06-19T18:31:02.898Z,24.10
2018-06-19T18:33:30.182Z,22.80
2018-06-19T18:35:57.460Z,24.00
2018-06-19T18:38:25.095Z,23.60
2018-06-19T18:40:52.426Z,23.90
2018-06-19T18:43:19.768Z,23.80
2018-06-19T18:45:47.065Z,23.30
2018-06-19T18:48:14.331Z,23.70
2018-06-19T18:53:08.907Z,23.60
2018-06-19T18:55:36.205Z,23.60
2018-06-19T18:58:03.494Z,23.50
2018-06-19T19:02:58.138Z,23.40
2018-06-19T19:05:25.551Z,23.40
2018-06-19T19:07:52.839Z,23.40
2018-06-19T19:10:25.801Z,23.20
2018-06-19T19:12:53.410Z,23.30
2018-06-19T19:15:26.489Z,23.30
2018-06-19T19:17:59.436Z,23.20
2018-06-19T19:20:26.872Z,23.10
2018-06-19T19:22:54.328Z,23.10
2018-06-19T19:25:21.931Z,23.00
2018-06-19T19:27:59.424Z,23.00
2018-06-19T19:30:26.772Z,23.00
2018-06-19T19:32:54.107Z,22.90
2018-06-19T19:35:21.546Z,22.90
2018-06-19T19:37:55.324Z,22.40
2018-06-19T19:40:22.807Z,22.80
2018-06-19T19:42:50.141Z,22.80
2018-06-19T19:45:17.508Z,22.70
2018-06-19T19:47:51.294Z,22.70
2018-06-19T19:50:18.591Z,22.60
2018-06-19T19:52:46.033Z,22.50
2018-06-19T19:55:13.359Z,22.50
2018-06-19T19:57:46.596Z,22.50
2018-06-19T20:00:19.033Z,22.50
2018-06-19T20:02:46.875Z,22.30
2018-06-19T20:07:41.456Z,22.40
2018-06-19T20:10:08.755Z,22.40
2018-06-19T20:12:36.066Z,21.60
2018-06-19T20:15:03.627Z,22.30
2018-06-19T20:17:30.907Z,22.20
2018-06-19T20:19:58.509Z,21.90
2018-06-19T20:22:25.874Z,22.10
2018-06-19T20:24:53.120Z,21.50
2018-06-19T20:27:20.392Z,22.00
2018-06-19T20:29:47.948Z,22.00
2018-06-19T20:32:15.276Z,21.40
2018-06-19T20:34:42.547Z,21.90
2018-06-19T20:39:37.112Z,21.70
2018-06-19T20:42:04.443Z,21.60
2018-06-19T20:44:31.755Z,21.50
2018-06-19T20:46:59.152Z,20.20
2018-06-19T20:49:26.616Z,21.30
2018-06-19T20:51:53.925Z,20.80
2018-06-19T20:54:21.308Z,21.30
2018-06-19T20:56:48.768Z,21.20
2018-06-19T20:59:16.129Z,21.10
2018-06-19T21:01:43.755Z,21.00
2018-06-19T21:04:11.119Z,21.00
2018-06-19T21:06:38.462Z,20.90
2018-06-19T21:09:10.025Z,20.90
2018-06-19T21:11:37.323Z,20.90
2018-06-19T21:14:04.636Z,20.80
2018-06-19T21:16:31.983Z,20.80
2018-06-19T21:18:59.292Z,20.10
2018-06-19T21:21:26.981Z,20.60
2018-06-19T21:23:54.299Z,21.70
2018-06-19T21:26:21.588Z,20.50
2018-06-19T21:28:48.871Z,20.50
2018-06-19T21:31:16.187Z,20.40
2018-06-19T21:33:43.544Z,20.30
2018-06-19T21:36:11.132Z,20.20
2018-06-19T21:38:38.516Z,20.20
2018-06-19T21:41:06.244Z,20.10
2018-06-19T21:43:33.594Z,20.00
2018-06-19T21:46:00.964Z,19.90
2018-06-19T21:48:28.309Z,19.80
2018-06-19T21:50:55.870Z,19.80
2018-06-19T21:53:23.186Z,19.70
2018-06-19T21:55:50.554Z,19.60
2018-06-19T21:58:18.008Z,18.60
2018-06-19T22:00:45.315Z,19.50
2018-06-19T22:03:12.756Z,19.30
2018-06-19T22:05:40.008Z,19.40
2018-06-19T22:08:07.324Z,18.50
2018-06-19T22:10:34.678Z,19.30
2018-06-19T22:13:01.977Z,19.30
2018-06-19T22:15:29.351Z,19.20
2018-06-19T22:17:57.211Z,19.00
2018-06-19T22:22:52.326Z,19.00
2018-06-19T22:25:19.666Z,18.60
2018-06-19T22:27:47.408Z,18.90
2018-06-19T22:30:14.707Z,18.80
2018-06-19T22:32:42.045Z,18.80
2018-06-19T22:35:09.414Z,18.70
2018-06-19T22:40:04.024Z,18.60
2018-06-19T22:42:31.904Z,18.60
2018-06-19T22:44:59.356Z,17.80
2018-06-19T22:47:26.748Z,18.50
2018-06-19T22:52:21.533Z,18.40
2018-06-19T22:54:48.881Z,18.40
2018-06-19T22:57:16.183Z,16.90
2018-06-19T22:59:44.176Z,18.30
2018-06-19T23:02:11.654Z,18.20
2018-06-19T23:04:39.039Z,18.00
2018-06-19T23:09:33.651Z,18.10
2018-06-19T23:12:01.015Z,18.00
2018-06-19T23:14:28.274Z,17.90
2018-06-19T23:16:55.626Z,17.90
2018-06-19T23:19:22.887Z,17.90
2018-06-19T23:21:50.299Z,17.90
2018-06-19T23:26:45.123Z,17.80
2018-06-19T23:29:12.529Z,17.70
2018-06-19T23:31:39.813Z,17.60
2018-06-19T23:34:07.376Z,17.60
2018-06-19T23:36:34.696Z,17.60
2018-06-19T23:39:02.473Z,17.60
2018-06-19T23:41:29.743Z,15.90
2018-06-19T23:43:57.279Z,16.60
2018-06-19T23:46:24.567Z,17.50
2018-06-19T23:48:51.892Z,17.40
2018-06-19T23:51:19.297Z,17.30
2018-06-19T23:53:46.612Z,17.30
2018-06-19T23:56:14.389Z,17.30
2018-06-19T23:58:42.052Z,17.30
